sensor_id;sensor_type;location;lat;lon;timestamp;temperature;humidity
37594;DHT22;23441;50.856;6.076;2023-07-13T00:01:15;15.10;99.90
37594;DHT22;23441;50.856;6.076;2023-07-13T00:03:41;15.00;99.90
37594;DHT22;23441;50.856;6.076;2023-07-13T00:06:07;15.00;99.90
37594;DHT22;23441;50.856;6.076;2023-07-13T00:08:34;15.00;99.90
37594;DHT22;23441;50.856;6.076;2023-07-13T00:11:01;15.10;99.90
37594;DHT22;23441;50.856;6.076;2023-07-13T00:13:27;15.10;99.90
37594;DHT22;23441;50.856;6.076;2023-07-13T00:15:53;15.10;99.90
37594;DHT22;23441;50.856;6.076;2023-07-13T00:18:20;15.10;99.90
37594;DHT22;23441;50.856;6.076;2023-07-13T00:20:46;15.10;99.90
37594;DHT22;23441;50.856;6.076;2023-07-13T00:23:11;15.10;99.90
37594;DHT22;23441;50.856;6.076;2023-07-13T00:25:37;15.10;99.90
37594;DHT22;23441;50.856;6.076;2023-07-13T00:28:03;15.10;99.90
37594;DHT22;23441;50.856;6.076;2023-07-13T00:30:28;15.00;99.90
37594;DHT22;23441;50.856;6.076;2023-07-13T00:32:54;15.00;99.90
37594;DHT22;23441;50.856;6.076;2023-07-13T00:35:20;14.90;99.90
37594;DHT22;23441;50.856;6.076;2023-07-13T00:37:45;14.80;99.90
37594;DHT22;23441;50.856;6.076;2023-07-13T00:40:13;14.80;99.90
37594;DHT22;23441;50.856;6.076;2023-07-13T00:42:39;14.70;99.90
37594;DHT22;23441;50.856;6.076;2023-07-13T00:45:07;14.60;99.90
37594;DHT22;23441;50.856;6.076;2023-07-13T00:47:33;14.60;99.90
37594;DHT22;23441;50.856;6.076;2023-07-13T00:49:59;14.50;99.90
37594;DHT22;23441;50.856;6.076;2023-07-13T00:52:25;14.40;99.90
37594;DHT22;23441;50.856;6.076;2023-07-13T00:54:51;14.40;99.90
37594;DHT22;23441;50.856;6.076;2023-07-13T00:57:18;14.40;99.90
37594;DHT22;23441;50.856;6.076;2023-07-13T00:59:48;14.30;99.90
37594;DHT22;23441;50.856;6.076;2023-07-13T01:02:15;14.20;99.90
37594;DHT22;23441;50.856;6.076;2023-07-13T01:04:41;14.20;99.90
37594;DHT22;23441;50.856;6.076;2023-07-13T01:07:09;14.20;99.90
37594;DHT22;23441;50.856;6.076;2023-07-13T01:09:36;14.20;99.90
37594;DHT22;23441;50.856;6.076;2023-07-13T01:12:01;14.20;99.90
37594;DHT22;23441;50.856;6.076;2023-07-13T01:14:28;14.20;99.90
37594;DHT22;23441;50.856;6.076;2023-07-13T01:16:54;14.20;99.90
37594;DHT22;23441;50.856;6.076;2023-07-13T01:19:42;14.20;99.90
37594;DHT22;23441;50.856;6.076;2023-07-13T01:22:14;14.20;99.90
37594;DHT22;23441;50.856;6.076;2023-07-13T01:24:43;14.30;99.90
37594;DHT22;23441;50.856;6.076;2023-07-13T01:27:12;14.20;99.90
37594;DHT22;23441;50.856;6.076;2023-07-13T01:29:39;14.20;99.90
37594;DHT22;23441;50.856;6.076;2023-07-13T01:32:08;14.10;99.90
37594;DHT22;23441;50.856;6.076;2023-07-13T01:34:34;14.10;99.90
37594;DHT22;23441;50.856;6.076;2023-07-13T01:37:00;14.10;99.90
37594;DHT22;23441;50.856;6.076;2023-07-13T01:39:26;14.10;99.90
37594;DHT22;23441;50.856;6.076;2023-07-13T01:41:51;14.10;99.90
37594;DHT22;23441;50.856;6.076;2023-07-13T01:44:17;14.10;99.90
37594;DHT22;23441;50.856;6.076;2023-07-13T01:46:42;14.10;99.90
37594;DHT22;23441;50.856;6.076;2023-07-13T01:49:08;14.10;99.90
37594;DHT22;23441;50.856;6.076;2023-07-13T01:51:33;14.10;99.90
37594;DHT22;23441;50.856;6.076;2023-07-13T01:53:59;14.10;99.90
37594;DHT22;23441;50.856;6.076;2023-07-13T01:56:25;14.00;99.90
37594;DHT22;23441;50.856;6.076;2023-07-13T01:58:52;14.00;99.90
37594;DHT22;23441;50.856;6.076;2023-07-13T02:01:18;13.90;99.90
37594;DHT22;23441;50.856;6.076;2023-07-13T02:03:43;13.90;99.90
37594;DHT22;23441;50.856;6.076;2023-07-13T02:06:09;14.00;99.90
37594;DHT22;23441;50.856;6.076;2023-07-13T02:08:35;13.90;99.90
37594;DHT22;23441;50.856;6.076;2023-07-13T02:11:02;14.00;99.90
37594;DHT22;23441;50.856;6.076;2023-07-13T02:13:28;13.90;99.90
37594;DHT22;23441;50.856;6.076;2023-07-13T02:15:54;13.90;99.90
37594;DHT22;23441;50.856;6.076;2023-07-13T02:18:19;14.00;99.90
37594;DHT22;23441;50.856;6.076;2023-07-13T02:20:45;14.00;99.90
37594;DHT22;23441;50.856;6.076;2023-07-13T02:23:11;13.90;99.90
37594;DHT22;23441;50.856;6.076;2023-07-13T02:25:37;13.90;99.90
37594;DHT22;23441;50.856;6.076;2023-07-13T02:28:03;13.80;99.90
37594;DHT22;23441;50.856;6.076;2023-07-13T02:30:29;13.90;99.90
37594;DHT22;23441;50.856;6.076;2023-07-13T02:32:56;13.90;99.90
37594;DHT22;23441;50.856;6.076;2023-07-13T02:35:22;13.90;99.90
37594;DHT22;23441;50.856;6.076;2023-07-13T02:37:48;13.90;99.90
37594;DHT22;23441;50.856;6.076;2023-07-13T02:40:13;13.90;99.90
37594;DHT22;23441;50.856;6.076;2023-07-13T02:42:39;13.80;99.90
37594;DHT22;23441;50.856;6.076;2023-07-13T02:45:07;13.90;99.90
37594;DHT22;23441;50.856;6.076;2023-07-13T02:47:33;13.80;99.90
37594;DHT22;23441;50.856;6.076;2023-07-13T02:49:59;13.80;99.90
37594;DHT22;23441;50.856;6.076;2023-07-13T02:52:25;13.80;99.90
37594;DHT22;23441;50.856;6.076;2023-07-13T02:54:51;13.80;99.90
37594;DHT22;23441;50.856;6.076;2023-07-13T02:57:16;13.70;99.90
37594;DHT22;23441;50.856;6.076;2023-07-13T02:59:42;13.70;99.90
37594;DHT22;23441;50.856;6.076;2023-07-13T03:02:08;13.70;99.90
37594;DHT22;23441;50.856;6.076;2023-07-13T03:04:35;13.80;99.90
37594;DHT22;23441;50.856;6.076;2023-07-13T03:07:01;13.70;99.90
37594;DHT22;23441;50.856;6.076;2023-07-13T03:09:27;13.70;99.90
37594;DHT22;23441;50.856;6.076;2023-07-13T03:11:56;13.70;99.90
37594;DHT22;23441;50.856;6.076;2023-07-13T03:14:22;13.70;99.90
37594;DHT22;23441;50.856;6.076;2023-07-13T03:16:48;13.60;99.90
37594;DHT22;23441;50.856;6.076;2023-07-13T03:19:14;13.60;99.90
37594;DHT22;23441;50.856;6.076;2023-07-13T03:21:40;13.60;99.90
37594;DHT22;23441;50.856;6.076;2023-07-13T03:24:05;13.60;99.90
37594;DHT22;23441;50.856;6.076;2023-07-13T03:26:31;13.60;99.90
37594;DHT22;23441;50.856;6.076;2023-07-13T03:28:57;13.50;99.90
37594;DHT22;23441;50.856;6.076;2023-07-13T03:31:25;13.50;99.90
37594;DHT22;23441;50.856;6.076;2023-07-13T03:33:51;13.50;99.90
37594;DHT22;23441;50.856;6.076;2023-07-13T03:36:20;13.50;99.90
37594;DHT22;23441;50.856;6.076;2023-07-13T03:38:53;13.60;99.90
37594;DHT22;23441;50.856;6.076;2023-07-13T03:41:19;13.50;99.90
37594;DHT22;23441;50.856;6.076;2023-07-13T03:43:45;13.60;99.90
37594;DHT22;23441;50.856;6.076;2023-07-13T03:46:13;13.60;99.90
37594;DHT22;23441;50.856;6.076;2023-07-13T03:48:40;13.60;99.90
37594;DHT22;23441;50.856;6.076;2023-07-13T03:51:08;13.60;99.90
37594;DHT22;23441;50.856;6.076;2023-07-13T03:53:38;13.60;99.90
37594;DHT22;23441;50.856;6.076;2023-07-13T03:56:04;13.50;99.90
37594;DHT22;23441;50.856;6.076;2023-07-13T03:58:35;13.50;99.90
37594;DHT22;23441;50.856;6.076;2023-07-13T04:01:03;13.60;99.90
37594;DHT22;23441;50.856;6.076;2023-07-13T04:03:29;13.60;99.90
37594;DHT22;23441;50.856;6.076;2023-07-13T04:05:58;13.60;99.90
37594;DHT22;23441;50.856;6.076;2023-07-13T04:08:30;13.60;99.90
37594;DHT22;23441;50.856;6.076;2023-07-13T04:10:56;13.70;99.90
37594;DHT22;23441;50.856;6.076;2023-07-13T04:13:23;13.80;99.90
37594;DHT22;23441;50.856;6.076;2023-07-13T04:15:49;13.80;99.90
37594;DHT22;23441;50.856;6.076;2023-07-13T04:18:14;13.80;99.90
37594;DHT22;23441;50.856;6.076;2023-07-13T04:20:40;13.80;99.90
37594;DHT22;23441;50.856;6.076;2023-07-13T04:23:06;13.80;99.90
37594;DHT22;23441;50.856;6.076;2023-07-13T04:25:31;13.80;99.90
37594;DHT22;23441;50.856;6.076;2023-07-13T04:27:57;13.90;99.90
37594;DHT22;23441;50.856;6.076;2023-07-13T04:30:23;13.90;99.90
37594;DHT22;23441;50.856;6.076;2023-07-13T04:32:51;14.00;99.90
37594;DHT22;23441;50.856;6.076;2023-07-13T04:35:18;14.00;99.90
37594;DHT22;23441;50.856;6.076;2023-07-13T04:37:47;14.10;99.90
37594;DHT22;23441;50.856;6.076;2023-07-13T04:40:13;14.20;99.90
37594;DHT22;23441;50.856;6.076;2023-07-13T04:42:38;14.30;99.90
37594;DHT22;23441;50.856;6.076;2023-07-13T04:45:06;14.50;99.90
37594;DHT22;23441;50.856;6.076;2023-07-13T04:47:32;14.60;99.90
37594;DHT22;23441;50.856;6.076;2023-07-13T04:49:57;14.70;99.90
37594;DHT22;23441;50.856;6.076;2023-07-13T04:52:23;14.90;99.90
37594;DHT22;23441;50.856;6.076;2023-07-13T04:54:49;15.10;99.90
37594;DHT22;23441;50.856;6.076;2023-07-13T04:57:15;15.20;99.90
37594;DHT22;23441;50.856;6.076;2023-07-13T04:59:42;15.40;99.90
37594;DHT22;23441;50.856;6.076;2023-07-13T05:02:08;15.60;99.90
37594;DHT22;23441;50.856;6.076;2023-07-13T05:04:33;15.70;99.90
37594;DHT22;23441;50.856;6.076;2023-07-13T05:06:59;15.70;99.90
37594;DHT22;23441;50.856;6.076;2023-07-13T05:09:25;15.70;99.90
37594;DHT22;23441;50.856;6.076;2023-07-13T05:11:51;15.70;99.90
37594;DHT22;23441;50.856;6.076;2023-07-13T05:14:16;15.70;99.90
37594;DHT22;23441;50.856;6.076;2023-07-13T05:16:42;15.80;99.90
37594;DHT22;23441;50.856;6.076;2023-07-13T05:19:08;15.70;99.90
37594;DHT22;23441;50.856;6.076;2023-07-13T05:21:34;15.70;99.90
37594;DHT22;23441;50.856;6.076;2023-07-13T05:23:59;15.80;99.90
37594;DHT22;23441;50.856;6.076;2023-07-13T05:26:25;16.00;99.90
37594;DHT22;23441;50.856;6.076;2023-07-13T05:28:51;16.00;99.90
37594;DHT22;23441;50.856;6.076;2023-07-13T05:31:16;16.00;99.90
37594;DHT22;23441;50.856;6.076;2023-07-13T05:33:42;16.00;99.90
37594;DHT22;23441;50.856;6.076;2023-07-13T05:36:08;16.00;99.90
37594;DHT22;23441;50.856;6.076;2023-07-13T05:38:34;16.00;99.90
37594;DHT22;23441;50.856;6.076;2023-07-13T05:41:00;15.90;99.90
37594;DHT22;23441;50.856;6.076;2023-07-13T05:43:26;15.90;99.90
37594;DHT22;23441;50.856;6.076;2023-07-13T05:45:55;15.90;99.90
37594;DHT22;23441;50.856;6.076;2023-07-13T05:48:21;15.80;99.90
37594;DHT22;23441;50.856;6.076;2023-07-13T05:50:47;15.80;99.90
37594;DHT22;23441;50.856;6.076;2023-07-13T05:53:13;15.90;99.90
37594;DHT22;23441;50.856;6.076;2023-07-13T05:55:48;16.00;99.90
37594;DHT22;23441;50.856;6.076;2023-07-13T05:58:16;15.90;99.90
37594;DHT22;23441;50.856;6.076;2023-07-13T06:00:42;15.90;99.90
37594;DHT22;23441;50.856;6.076;2023-07-13T06:03:08;16.00;99.90
37594;DHT22;23441;50.856;6.076;2023-07-13T06:05:35;16.10;99.90
37594;DHT22;23441;50.856;6.076;2023-07-13T06:08:02;16.10;99.90
37594;DHT22;23441;50.856;6.076;2023-07-13T06:10:28;16.10;99.90
37594;DHT22;23441;50.856;6.076;2023-07-13T06:12:53;16.10;99.90
37594;DHT22;23441;50.856;6.076;2023-07-13T06:15:19;16.30;99.90
37594;DHT22;23441;50.856;6.076;2023-07-13T06:17:45;16.40;99.90
37594;DHT22;23441;50.856;6.076;2023-07-13T06:20:10;16.40;99.90
37594;DHT22;23441;50.856;6.076;2023-07-13T06:22:36;16.30;99.90
37594;DHT22;23441;50.856;6.076;2023-07-13T06:25:02;16.20;99.90
37594;DHT22;23441;50.856;6.076;2023-07-13T06:27:28;16.10;99.90
37594;DHT22;23441;50.856;6.076;2023-07-13T06:29:53;16.00;99.90
37594;DHT22;23441;50.856;6.076;2023-07-13T06:32:20;16.00;99.90
37594;DHT22;23441;50.856;6.076;2023-07-13T06:34:46;16.00;99.90
37594;DHT22;23441;50.856;6.076;2023-07-13T06:37:11;16.20;99.90
37594;DHT22;23441;50.856;6.076;2023-07-13T06:39:37;16.30;99.90
37594;DHT22;23441;50.856;6.076;2023-07-13T06:42:03;16.30;99.90
37594;DHT22;23441;50.856;6.076;2023-07-13T06:44:29;16.10;99.90
37594;DHT22;23441;50.856;6.076;2023-07-13T06:46:54;16.30;99.90
37594;DHT22;23441;50.856;6.076;2023-07-13T06:49:20;16.30;99.90
37594;DHT22;23441;50.856;6.076;2023-07-13T06:51:45;16.40;99.90
37594;DHT22;23441;50.856;6.076;2023-07-13T06:54:13;16.40;99.90
37594;DHT22;23441;50.856;6.076;2023-07-13T06:56:39;16.50;99.90
37594;DHT22;23441;50.856;6.076;2023-07-13T06:59:04;16.60;99.90
37594;DHT22;23441;50.856;6.076;2023-07-13T07:01:30;16.70;99.90
37594;DHT22;23441;50.856;6.076;2023-07-13T07:03:56;16.80;99.90
37594;DHT22;23441;50.856;6.076;2023-07-13T07:06:22;16.90;99.90
37594;DHT22;23441;50.856;6.076;2023-07-13T07:08:51;17.00;99.90
37594;DHT22;23441;50.856;6.076;2023-07-13T07:11:20;17.20;99.90
37594;DHT22;23441;50.856;6.076;2023-07-13T07:13:47;17.20;99.90
37594;DHT22;23441;50.856;6.076;2023-07-13T07:16:14;17.10;99.90
37594;DHT22;23441;50.856;6.076;2023-07-13T07:18:39;17.30;99.90
37594;DHT22;23441;50.856;6.076;2023-07-13T07:21:05;17.40;99.90
37594;DHT22;23441;50.856;6.076;2023-07-13T07:23:31;17.30;99.90
37594;DHT22;23441;50.856;6.076;2023-07-13T07:25:56;17.50;99.90
37594;DHT22;23441;50.856;6.076;2023-07-13T07:28:22;17.70;99.90
37594;DHT22;23441;50.856;6.076;2023-07-13T07:30:49;17.60;99.90
37594;DHT22;23441;50.856;6.076;2023-07-13T07:33:17;17.60;99.90
37594;DHT22;23441;50.856;6.076;2023-07-13T07:35:43;17.70;99.90
37594;DHT22;23441;50.856;6.076;2023-07-13T07:38:09;17.80;99.90
37594;DHT22;23441;50.856;6.076;2023-07-13T07:40:39;17.80;99.90
37594;DHT22;23441;50.856;6.076;2023-07-13T07:43:06;17.80;99.90
37594;DHT22;23441;50.856;6.076;2023-07-13T07:45:32;17.60;99.90
37594;DHT22;23441;50.856;6.076;2023-07-13T07:47:58;17.60;99.90
37594;DHT22;23441;50.856;6.076;2023-07-13T07:50:28;17.70;99.90
37594;DHT22;23441;50.856;6.076;2023-07-13T07:52:54;18.00;99.90
37594;DHT22;23441;50.856;6.076;2023-07-13T07:55:21;18.10;99.90
37594;DHT22;23441;50.856;6.076;2023-07-13T07:57:47;18.40;99.90
37594;DHT22;23441;50.856;6.076;2023-07-13T08:00:14;18.20;99.90
37594;DHT22;23441;50.856;6.076;2023-07-13T08:02:40;18.50;99.90
37594;DHT22;23441;50.856;6.076;2023-07-13T08:05:07;19.00;99.90
37594;DHT22;23441;50.856;6.076;2023-07-13T08:07:33;19.30;99.90
37594;DHT22;23441;50.856;6.076;2023-07-13T08:09:59;19.30;99.90
37594;DHT22;23441;50.856;6.076;2023-07-13T08:12:25;19.20;99.90
37594;DHT22;23441;50.856;6.076;2023-07-13T08:14:51;19.60;99.90
37594;DHT22;23441;50.856;6.076;2023-07-13T08:17:20;19.70;99.90
37594;DHT22;23441;50.856;6.076;2023-07-13T08:19:46;19.60;99.90
37594;DHT22;23441;50.856;6.076;2023-07-13T08:22:11;19.30;99.90
37594;DHT22;23441;50.856;6.076;2023-07-13T08:24:37;19.40;99.90
37594;DHT22;23441;50.856;6.076;2023-07-13T08:27:03;19.70;99.90
37594;DHT22;23441;50.856;6.076;2023-07-13T08:29:28;20.10;99.90
37594;DHT22;23441;50.856;6.076;2023-07-13T08:31:57;20.30;99.90
37594;DHT22;23441;50.856;6.076;2023-07-13T08:34:23;20.10;99.90
37594;DHT22;23441;50.856;6.076;2023-07-13T08:36:49;20.20;99.90
37594;DHT22;23441;50.856;6.076;2023-07-13T08:39:14;20.70;99.90
37594;DHT22;23441;50.856;6.076;2023-07-13T08:41:40;21.40;99.90
37594;DHT22;23441;50.856;6.076;2023-07-13T08:44:14;21.70;99.90
37594;DHT22;23441;50.856;6.076;2023-07-13T08:46:42;22.30;99.90
37594;DHT22;23441;50.856;6.076;2023-07-13T08:49:15;22.60;99.90
37594;DHT22;23441;50.856;6.076;2023-07-13T08:51:51;22.10;99.90
37594;DHT22;23441;50.856;6.076;2023-07-13T08:54:29;22.80;99.90
37594;DHT22;23441;50.856;6.076;2023-07-13T08:56:56;22.60;99.90
37594;DHT22;23441;50.856;6.076;2023-07-13T08:59:27;22.60;99.90
37594;DHT22;23441;50.856;6.076;2023-07-13T09:02:24;22.70;99.90
37594;DHT22;23441;50.856;6.076;2023-07-13T09:05:04;22.30;99.90
37594;DHT22;23441;50.856;6.076;2023-07-13T09:07:51;23.30;99.90
37594;DHT22;23441;50.856;6.076;2023-07-13T09:10:25;23.70;99.90
37594;DHT22;23441;50.856;6.076;2023-07-13T09:15:34;24.80;99.90
37594;DHT22;23441;50.856;6.076;2023-07-13T09:21:15;24.00;99.90
37594;DHT22;23441;50.856;6.076;2023-07-13T09:23:42;23.60;99.40
37594;DHT22;23441;50.856;6.076;2023-07-13T09:26:12;23.20;99.70
37594;DHT22;23441;50.856;6.076;2023-07-13T09:28:42;22.50;99.90
37594;DHT22;23441;50.856;6.076;2023-07-13T09:31:34;22.20;99.90
37594;DHT22;23441;50.856;6.076;2023-07-13T09:34:04;22.20;99.90
37594;DHT22;23441;50.856;6.076;2023-07-13T09:36:32;21.90;99.90
37594;DHT22;23441;50.856;6.076;2023-07-13T09:39:09;21.70;99.90
37594;DHT22;23441;50.856;6.076;2023-07-13T09:44:18;21.50;99.90
37594;DHT22;23441;50.856;6.076;2023-07-13T09:46:54;21.70;99.90
37594;DHT22;23441;50.856;6.076;2023-07-13T09:49:33;21.80;99.90
37594;DHT22;23441;50.856;6.076;2023-07-13T09:52:04;22.10;99.90
37594;DHT22;23441;50.856;6.076;2023-07-13T09:54:34;22.10;99.90
37594;DHT22;23441;50.856;6.076;2023-07-13T09:57:01;21.90;99.90
37594;DHT22;23441;50.856;6.076;2023-07-13T09:59:32;21.80;99.90
37594;DHT22;23441;50.856;6.076;2023-07-13T10:01:58;21.80;99.90
37594;DHT22;23441;50.856;6.076;2023-07-13T10:04:33;22.20;99.90
37594;DHT22;23441;50.856;6.076;2023-07-13T10:07:12;22.20;99.90
37594;DHT22;23441;50.856;6.076;2023-07-13T10:09:41;23.00;99.90
37594;DHT22;23441;50.856;6.076;2023-07-13T10:12:14;23.00;99.90
37594;DHT22;23441;50.856;6.076;2023-07-13T10:14:42;22.50;99.90
37594;DHT22;23441;50.856;6.076;2023-07-13T10:17:13;22.10;99.90
37594;DHT22;23441;50.856;6.076;2023-07-13T10:19:41;21.80;99.90
37594;DHT22;23441;50.856;6.076;2023-07-13T10:25:20;21.70;99.90
37594;DHT22;23441;50.856;6.076;2023-07-13T10:28:35;21.40;99.90
37594;DHT22;23441;50.856;6.076;2023-07-13T10:30:39;21.30;99.90
37594;DHT22;23441;50.856;6.076;2023-07-13T10:33:10;22.00;99.90
37594;DHT22;23441;50.856;6.076;2023-07-13T10:35:37;23.10;99.90
37594;DHT22;23441;50.856;6.076;2023-07-13T10:38:11;23.70;98.60
37594;DHT22;23441;50.856;6.076;2023-07-13T10:40:39;23.90;98.40
37594;DHT22;23441;50.856;6.076;2023-07-13T10:43:28;24.00;99.30
37594;DHT22;23441;50.856;6.076;2023-07-13T10:45:55;24.30;99.90
37594;DHT22;23441;50.856;6.076;2023-07-13T10:48:22;24.40;97.60
37594;DHT22;23441;50.856;6.076;2023-07-13T10:50:51;24.20;96.80
37594;DHT22;23441;50.856;6.076;2023-07-13T10:58:22;24.40;97.30
37594;DHT22;23441;50.856;6.076;2023-07-13T11:01:09;24.80;98.00
37594;DHT22;23441;50.856;6.076;2023-07-13T11:03:53;24.70;95.90
37594;DHT22;23441;50.856;6.076;2023-07-13T11:09:46;23.90;96.70
37594;DHT22;23441;50.856;6.076;2023-07-13T11:11:45;23.60;97.80
37594;DHT22;23441;50.856;6.076;2023-07-13T11:16:46;22.80;98.00
37594;DHT22;23441;50.856;6.076;2023-07-13T11:30:08;23.20;99.50
37594;DHT22;23441;50.856;6.076;2023-07-13T11:32:35;23.20;96.70
37594;DHT22;23441;50.856;6.076;2023-07-13T11:35:00;23.60;96.30
37594;DHT22;23441;50.856;6.076;2023-07-13T11:37:26;23.40;96.80
37594;DHT22;23441;50.856;6.076;2023-07-13T11:39:54;23.40;97.80
37594;DHT22;23441;50.856;6.076;2023-07-13T11:42:21;22.70;97.80
37594;DHT22;23441;50.856;6.076;2023-07-13T11:44:50;22.70;97.80
37594;DHT22;23441;50.856;6.076;2023-07-13T11:47:22;22.90;99.10
37594;DHT22;23441;50.856;6.076;2023-07-13T11:49:54;23.40;98.40
37594;DHT22;23441;50.856;6.076;2023-07-13T11:52:26;23.80;98.40
37594;DHT22;23441;50.856;6.076;2023-07-13T11:54:55;23.90;96.30
37594;DHT22;23441;50.856;6.076;2023-07-13T11:57:32;24.20;98.70
37594;DHT22;23441;50.856;6.076;2023-07-13T12:00:04;24.50;96.90
37594;DHT22;23441;50.856;6.076;2023-07-13T12:02:48;24.80;98.40
37594;DHT22;23441;50.856;6.076;2023-07-13T12:05:16;24.80;95.20
37594;DHT22;23441;50.856;6.076;2023-07-13T12:07:47;24.60;95.30
37594;DHT22;23441;50.856;6.076;2023-07-13T12:10:26;24.10;95.10
37594;DHT22;23441;50.856;6.076;2023-07-13T12:13:01;23.50;96.80
37594;DHT22;23441;50.856;6.076;2023-07-13T12:15:45;23.40;95.80
37594;DHT22;23441;50.856;6.076;2023-07-13T12:18:18;23.70;97.70
37594;DHT22;23441;50.856;6.076;2023-07-13T12:20:45;24.00;96.80
37594;DHT22;23441;50.856;6.076;2023-07-13T12:23:37;24.10;95.70
37594;DHT22;23441;50.856;6.076;2023-07-13T12:26:06;24.90;95.10
37594;DHT22;23441;50.856;6.076;2023-07-13T12:28:43;24.70;94.50
37594;DHT22;23441;50.856;6.076;2023-07-13T12:34:02;24.80;94.60
37594;DHT22;23441;50.856;6.076;2023-07-13T12:36:33;24.40;93.40
37594;DHT22;23441;50.856;6.076;2023-07-13T12:39:04;24.20;94.40
37594;DHT22;23441;50.856;6.076;2023-07-13T12:41:31;24.20;94.00
37594;DHT22;23441;50.856;6.076;2023-07-13T12:43:59;24.00;94.30
37594;DHT22;23441;50.856;6.076;2023-07-13T12:46:26;24.20;94.40
37594;DHT22;23441;50.856;6.076;2023-07-13T12:48:54;24.20;95.10
37594;DHT22;23441;50.856;6.076;2023-07-13T12:51:24;24.40;93.70
37594;DHT22;23441;50.856;6.076;2023-07-13T12:53:57;24.00;93.70
37594;DHT22;23441;50.856;6.076;2023-07-13T12:56:25;23.90;94.60
37594;DHT22;23441;50.856;6.076;2023-07-13T12:58:59;24.20;94.90
37594;DHT22;23441;50.856;6.076;2023-07-13T13:01:28;24.20;93.90
37594;DHT22;23441;50.856;6.076;2023-07-13T13:03:54;24.10;93.80
37594;DHT22;23441;50.856;6.076;2023-07-13T13:06:22;24.00;94.50
37594;DHT22;23441;50.856;6.076;2023-07-13T13:08:54;24.30;94.30
37594;DHT22;23441;50.856;6.076;2023-07-13T13:11:22;24.20;93.90
37594;DHT22;23441;50.856;6.076;2023-07-13T13:13:49;23.70;93.50
37594;DHT22;23441;50.856;6.076;2023-07-13T13:16:33;23.90;96.40
37594;DHT22;23441;50.856;6.076;2023-07-13T13:19:14;24.50;95.70
37594;DHT22;23441;50.856;6.076;2023-07-13T13:21:42;24.60;94.40
37594;DHT22;23441;50.856;6.076;2023-07-13T13:24:16;24.70;92.80
37594;DHT22;23441;50.856;6.076;2023-07-13T13:26:43;24.40;93.00
37594;DHT22;23441;50.856;6.076;2023-07-13T13:29:20;24.20;94.00
37594;DHT22;23441;50.856;6.076;2023-07-13T13:31:47;24.40;94.60
37594;DHT22;23441;50.856;6.076;2023-07-13T13:34:15;24.70;92.70
37594;DHT22;23441;50.856;6.076;2023-07-13T13:36:41;24.70;94.10
37594;DHT22;23441;50.856;6.076;2023-07-13T13:39:18;24.70;92.60
37594;DHT22;23441;50.856;6.076;2023-07-13T13:41:45;24.80;92.20
37594;DHT22;23441;50.856;6.076;2023-07-13T13:44:14;24.80;93.00
37594;DHT22;23441;50.856;6.076;2023-07-13T13:46:40;24.90;93.50
37594;DHT22;23441;50.856;6.076;2023-07-13T13:49:17;24.90;91.40
37594;DHT22;23441;50.856;6.076;2023-07-13T13:51:45;24.60;93.30
37594;DHT22;23441;50.856;6.076;2023-07-13T13:54:12;24.40;91.40
37594;DHT22;23441;50.856;6.076;2023-07-13T13:56:40;24.30;92.10
37594;DHT22;23441;50.856;6.076;2023-07-13T13:59:06;23.70;92.60
37594;DHT22;23441;50.856;6.076;2023-07-13T14:01:31;23.90;92.80
37594;DHT22;23441;50.856;6.076;2023-07-13T14:03:57;24.20;92.60
37594;DHT22;23441;50.856;6.076;2023-07-13T14:06:24;24.10;92.20
37594;DHT22;23441;50.856;6.076;2023-07-13T14:08:50;24.00;92.50
37594;DHT22;23441;50.856;6.076;2023-07-13T14:11:19;24.40;93.00
37594;DHT22;23441;50.856;6.076;2023-07-13T14:13:53;24.00;92.00
37594;DHT22;23441;50.856;6.076;2023-07-13T14:16:22;23.50;93.40
37594;DHT22;23441;50.856;6.076;2023-07-13T14:18:49;23.40;94.10
37594;DHT22;23441;50.856;6.076;2023-07-13T14:21:20;23.40;94.30
37594;DHT22;23441;50.856;6.076;2023-07-13T14:23:47;23.20;93.70
37594;DHT22;23441;50.856;6.076;2023-07-13T14:26:22;23.30;93.20
37594;DHT22;23441;50.856;6.076;2023-07-13T14:28:53;23.00;93.90
37594;DHT22;23441;50.856;6.076;2023-07-13T14:31:21;23.00;93.40
37594;DHT22;23441;50.856;6.076;2023-07-13T14:33:47;23.10;94.10
37594;DHT22;23441;50.856;6.076;2023-07-13T14:36:35;22.90;93.20
37594;DHT22;23441;50.856;6.076;2023-07-13T14:39:22;23.00;93.40
37594;DHT22;23441;50.856;6.076;2023-07-13T14:41:54;22.70;93.40
37594;DHT22;23441;50.856;6.076;2023-07-13T14:44:25;22.60;93.30
37594;DHT22;23441;50.856;6.076;2023-07-13T14:46:52;22.60;93.80
37594;DHT22;23441;50.856;6.076;2023-07-13T14:49:30;22.60;93.40
37594;DHT22;23441;50.856;6.076;2023-07-13T14:51:59;22.70;93.40
37594;DHT22;23441;50.856;6.076;2023-07-13T14:54:25;22.70;93.80
37594;DHT22;23441;50.856;6.076;2023-07-13T14:56:51;22.60;94.10
37594;DHT22;23441;50.856;6.076;2023-07-13T14:59:17;22.50;93.80
37594;DHT22;23441;50.856;6.076;2023-07-13T15:01:47;22.30;94.10
37594;DHT22;23441;50.856;6.076;2023-07-13T15:04:13;22.00;95.10
37594;DHT22;23441;50.856;6.076;2023-07-13T15:07:00;21.70;96.30
37594;DHT22;23441;50.856;6.076;2023-07-13T15:09:28;21.50;97.20
37594;DHT22;23441;50.856;6.076;2023-07-13T15:11:58;21.40;97.50
37594;DHT22;23441;50.856;6.076;2023-07-13T15:14:25;21.20;97.80
37594;DHT22;23441;50.856;6.076;2023-07-13T15:16:54;21.20;98.20
37594;DHT22;23441;50.856;6.076;2023-07-13T15:19:20;21.00;98.80
37594;DHT22;23441;50.856;6.076;2023-07-13T15:21:47;20.70;98.90
37594;DHT22;23441;50.856;6.076;2023-07-13T15:24:13;20.70;99.20
37594;DHT22;23441;50.856;6.076;2023-07-13T15:26:39;20.60;99.00
37594;DHT22;23441;50.856;6.076;2023-07-13T15:29:05;20.40;99.50
37594;DHT22;23441;50.856;6.076;2023-07-13T15:31:32;20.20;99.90
37594;DHT22;23441;50.856;6.076;2023-07-13T15:33:59;20.20;99.90
37594;DHT22;23441;50.856;6.076;2023-07-13T15:36:26;20.10;99.90
37594;DHT22;23441;50.856;6.076;2023-07-13T15:38:53;20.10;99.90
37594;DHT22;23441;50.856;6.076;2023-07-13T15:41:24;20.10;99.90
37594;DHT22;23441;50.856;6.076;2023-07-13T15:43:51;20.10;99.90
37594;DHT22;23441;50.856;6.076;2023-07-13T15:46:19;19.90;99.90
37594;DHT22;23441;50.856;6.076;2023-07-13T15:48:47;20.00;99.90
37594;DHT22;23441;50.856;6.076;2023-07-13T15:51:23;20.20;99.90
37594;DHT22;23441;50.856;6.076;2023-07-13T15:53:49;20.30;99.90
37594;DHT22;23441;50.856;6.076;2023-07-13T15:56:21;20.50;99.90
37594;DHT22;23441;50.856;6.076;2023-07-13T15:58:48;20.60;99.90
37594;DHT22;23441;50.856;6.076;2023-07-13T16:01:14;20.70;99.90
37594;DHT22;23441;50.856;6.076;2023-07-13T16:03:40;20.50;99.90
37594;DHT22;23441;50.856;6.076;2023-07-13T16:06:23;20.60;99.90
37594;DHT22;23441;50.856;6.076;2023-07-13T16:08:51;20.80;99.90
37594;DHT22;23441;50.856;6.076;2023-07-13T16:11:24;21.30;99.30
37594;DHT22;23441;50.856;6.076;2023-07-13T16:13:51;21.60;98.30